Time;durP1;ratioP1;P1;durP2;ratioP2;P2;SDS_P1;SDS_P2;PMS_P1;PMS_P2;Temp;Humidity;BMP_temperature;BMP_pressure;BME280_temperature;BME280_humidity;BME280_pressure;Samples;Min_cycle;Max_cycle;Signal;HPM_P1;HPM_P2
2022/08/23 00:01:22;;;;;;;;;;;;;;;19.88;100.00;98665.94;5041848;28;20020;-80
2022/08/23 00:03:49;;;;;;;;;;;;;;;19.90;100.00;98662.63;5074741;28;20253;-80
2022/08/23 00:06:16;;;;;;;;;;;;;;;19.90;100.00;98662.63;5058036;28;20020;-80
2022/08/23 00:08:47;;;;;;;;;;;;;;;19.89;100.00;98667.50;5057536;28;20322;-80
2022/08/23 00:11:26;;;;;;;;;;;;;;;19.88;100.00;98665.94;5058204;28;19954;-80
2022/08/23 00:13:54;;;;;;;;;;;;;;;19.83;100.00;98663.81;5074128;28;19924;-80
2022/08/23 00:16:21;;;;;;;;;;;;;;;19.37;100.00;98655.16;5057724;28;20029;-80
2022/08/23 00:18:48;;;;;;;;;;;;;;;19.27;100.00;98658.63;5074530;28;19929;-80
2022/08/23 00:21:15;;;;;;;;;;;;;;;19.54;100.00;98658.25;5074520;28;20454;-80
2022/08/23 00:23:42;;;;;;;;;;;;;;;19.65;100.00;98658.41;5074335;28;19924;-80
2022/08/23 00:26:10;;;;;;;;;;;;;;;19.54;100.00;98647.69;5057598;28;20354;-80
2022/08/23 00:28:37;;;;;;;;;;;;;;;19.75;100.00;98661.91;5073974;28;19924;-80
2022/08/23 00:31:04;;;;;;;;;;;;;;;19.76;100.00;98650.06;5057593;28;19929;-80
2022/08/23 00:33:31;;;;;;;;;;;;;;;19.76;100.00;98658.56;5074564;28;19924;-80
2022/08/23 00:35:58;;;;;;;;;;;;;;;19.73;100.00;98651.81;5057467;28;20435;-80
2022/08/23 00:38:25;;;;;;;;;;;;;;;19.67;100.00;98650.97;5074023;28;20023;-80
2022/08/23 00:40:53;;;;;;;;;;;;;;;19.53;100.00;98651.81;5073540;28;19924;-81
2022/08/23 00:49:32;;;;;;;;;;;;;;;19.20;100.00;98645.63;5073434;28;19924;-81
2022/08/23 00:52:02;;;;;;;;;;;;;;;18.97;100.00;98652.22;5056440;28;20020;-81
2022/08/23 00:54:29;;;;;;;;;;;;;;;19.19;100.00;98655.38;5073122;28;19946;-81
2022/08/23 00:56:59;;;;;;;;;;;;;;;19.22;100.00;98654.41;5072988;28;20019;-80
2022/08/23 00:59:27;;;;;;;;;;;;;;;19.33;100.00;98654.59;5056986;28;19925;-80
2022/08/23 01:01:54;;;;;;;;;;;;;;;19.11;100.00;98645.75;5073536;28;20429;-81
2022/08/23 01:04:22;;;;;;;;;;;;;;;18.86;100.00;98637.88;5056897;28;19924;-81
2022/08/23 01:06:54;;;;;;;;;;;;;;;19.07;100.00;98644.34;5073483;28;20019;-80
2022/08/23 01:09:21;;;;;;;;;;;;;;;19.20;100.00;98651.31;5056847;28;19925;-81
2022/08/23 01:11:52;;;;;;;;;;;;;;;19.20;100.00;98642.00;5073072;28;19993;-81
2022/08/23 01:14:20;;;;;;;;;;;;;;;19.22;100.00;98645.91;5073330;28;19924;-81
2022/08/23 01:16:56;;;;;;;;;;;;;;;19.08;100.00;98643.91;5073542;28;19963;-81
2022/08/23 01:19:28;;;;;;;;;;;;;;;18.60;100.00;98647.44;5072405;28;19974;-81
2022/08/23 01:22:03;;;;;;;;;;;;;;;18.34;100.00;98650.03;5056678;28;20055;-81
2022/08/23 01:24:30;;;;;;;;;;;;;;;18.38;100.00;98650.63;5073381;28;19924;-80
2022/08/23 01:26:57;;;;;;;;;;;;;;;18.78;100.00;98650.84;5074320;28;20364;-80
2022/08/23 01:29:25;;;;;;;;;;;;;;;19.02;100.00;98648.66;5074330;28;19978;-80
2022/08/23 01:31:52;;;;;;;;;;;;;;;19.11;100.00;98642.13;5056331;28;19939;-81
2022/08/23 01:34:24;;;;;;;;;;;;;;;19.20;100.00;98633.50;5073216;28;19931;-81
2022/08/23 01:36:51;;;;;;;;;;;;;;;19.19;100.00;98641.22;5056573;28;19931;-80
2022/08/23 01:39:18;;;;;;;;;;;;;;;19.20;100.00;98645.63;5074184;28;19924;-81
2022/08/23 01:41:45;;;;;;;;;;;;;;;19.10;100.00;98647.00;5056306;28;19928;-80
2022/08/23 01:44:13;;;;;;;;;;;;;;;18.97;100.00;98643.72;5072943;28;19924;-81
2022/08/23 01:46:42;;;;;;;;;;;;;;;18.79;100.00;98649.59;5056168;28;19975;-81
2022/08/23 01:49:11;;;;;;;;;;;;;;;18.91;100.00;98657.00;5056303;28;19925;-81
2022/08/23 01:51:38;;;;;;;;;;;;;;;18.56;100.00;98653.28;5039534;28;20386;-81
2022/08/23 01:54:06;;;;;;;;;;;;;;;18.32;100.00;98649.72;5055951;28;19924;-80
2022/08/23 01:56:34;;;;;;;;;;;;;;;18.43;100.00;98657.66;5055841;28;19924;-80
2022/08/23 01:59:01;;;;;;;;;;;;;;;18.66;100.00;98657.56;5056055;28;19932;-80
2022/08/23 02:01:33;;;;;;;;;;;;;;;18.79;100.00;98663.75;5072844;28;19931;-81
2022/08/23 02:04:01;;;;;;;;;;;;;;;18.82;100.00;98659.13;5056338;28;20318;-81
2022/08/23 02:06:28;;;;;;;;;;;;;;;18.78;100.00;98665.00;5073003;28;19951;-80
2022/08/23 02:09:00;;;;;;;;;;;;;;;18.82;100.00;98654.28;5073042;28;19924;-83
2022/08/23 02:11:30;;;;;;;;;;;;;;;18.86;100.00;98660.50;5072458;28;19924;-80
2022/08/23 02:13:58;;;;;;;;;;;;;;;18.81;100.00;98664.00;5055930;28;19994;-80
2022/08/23 02:16:35;;;;;;;;;;;;;;;18.66;100.00;98665.31;5055865;28;19924;-80
2022/08/23 02:19:05;;;;;;;;;;;;;;;18.60;100.00;98659.53;5072733;28;20330;-80
2022/08/23 02:21:33;;;;;;;;;;;;;;;18.47;100.00;98650.56;5072572;28;20318;-80
2022/08/23 02:24:21;;;;;;;;;;;;;;;18.68;100.00;98657.09;5072197;28;19924;-80
2022/08/23 02:26:50;;;;;;;;;;;;;;;18.80;100.00;98653.19;5055683;28;19932;-81
2022/08/23 02:29:19;;;;;;;;;;;;;;;18.71;100.00;98654.06;5072499;28;19924;-81
2022/08/23 02:31:47;;;;;;;;;;;;;;;18.82;100.00;98664.81;5058874;28;20543;-81
2022/08/23 02:34:16;;;;;;;;;;;;;;;18.91;100.00;98651.34;5076302;28;19928;-80
2022/08/23 02:36:43;;;;;;;;;;;;;;;18.95;100.00;98651.91;5059970;28;20372;-80
2022/08/23 02:39:11;;;;;;;;;;;;;;;18.73;100.00;98650.75;5077138;28;19924;-81
2022/08/23 02:41:40;;;;;;;;;;;;;;;18.50;100.00;98649.59;5077560;28;19928;-80
2022/08/23 02:44:09;;;;;;;;;;;;;;;18.08;100.00;98654.66;5076406;28;20379;-80
2022/08/23 02:46:38;;;;;;;;;;;;;;;18.47;100.00;98656.22;5059497;28;19970;-80
2022/08/23 02:49:05;;;;;;;;;;;;;;;18.61;100.00;98643.34;5076473;28;19924;-81
2022/08/23 02:51:33;;;;;;;;;;;;;;;18.78;100.00;98648.00;5059548;28;19924;-80
2022/08/23 02:54:00;;;;;;;;;;;;;;;18.76;100.00;98650.56;5075529;28;20027;-81
2022/08/23 02:56:28;;;;;;;;;;;;;;;18.83;100.00;98649.38;5075899;28;19924;-81
2022/08/23 02:58:55;;;;;;;;;;;;;;;18.85;100.00;98632.69;5075996;28;19979;-81
2022/08/23 03:01:25;;;;;;;;;;;;;;;18.76;100.00;98644.91;5059234;28;20035;-81
2022/08/23 03:03:55;;;;;;;;;;;;;;;18.80;100.00;98645.47;5075828;28;20398;-81
2022/08/23 03:06:23;;;;;;;;;;;;;;;18.65;100.00;98646.75;5075765;28;19930;-81
2022/08/23 03:08:55;;;;;;;;;;;;;;;18.30;100.00;98640.94;5075355;28;20015;-80
2022/08/23 03:11:23;;;;;;;;;;;;;;;18.45;100.00;98646.66;5075711;28;19924;-80
2022/08/23 03:13:52;;;;;;;;;;;;;;;18.28;100.00;98659.66;5075521;28;19924;-80
2022/08/23 03:16:21;;;;;;;;;;;;;;;18.16;100.00;98650.16;5076828;28;20018;-80
2022/08/23 03:18:48;;;;;;;;;;;;;;;18.41;100.00;98652.50;5059095;28;19928;-80
2022/08/23 03:21:16;;;;;;;;;;;;;;;18.55;100.00;98646.09;5075703;28;19935;-80
2022/08/23 03:23:44;;;;;;;;;;;;;;;18.49;100.00;98650.84;5075393;28;19931;-81
2022/08/23 03:26:12;;;;;;;;;;;;;;;18.57;100.00;98654.84;5075383;28;19928;-80
2022/08/23 03:28:41;;;;;;;;;;;;;;;18.37;100.00;98654.75;5058791;28;20009;-81
2022/08/23 03:31:09;;;;;;;;;;;;;;;18.33;100.00;98659.75;5075399;28;19924;-81
2022/08/23 03:33:54;;;;;;;;;;;;;;;18.63;100.00;98664.22;5058805;28;20371;-80
2022/08/23 03:36:21;;;;;;;;;;;;;;;18.76;100.00;98653.41;5075106;28;19928;-80
2022/08/23 03:38:48;;;;;;;;;;;;;;;18.82;100.00;98647.81;5076277;28;19933;-81
2022/08/23 03:41:17;;;;;;;;;;;;;;;18.78;100.00;98645.19;5075405;28;19978;-80
2022/08/23 03:43:44;;;;;;;;;;;;;;;18.84;100.00;98651.72;5057446;28;19967;-81
2022/08/23 03:46:21;;;;;;;;;;;;;;;18.14;100.00;98652.72;5058518;28;19924;-81
2022/08/23 03:48:56;;;;;;;;;;;;;;;18.34;100.00;98647.19;5074985;28;19931;-80
2022/08/23 03:51:25;;;;;;;;;;;;;;;18.56;100.00;98641.97;5074993;28;19955;-80
2022/08/23 03:53:54;;;;;;;;;;;;;;;18.28;100.00;98649.13;5058079;28;19931;-81
2022/08/23 03:56:25;;;;;;;;;;;;;;;18.34;100.00;98647.19;5091666;28;19946;-81
2022/08/23 03:58:52;;;;;;;;;;;;;;;18.39;100.00;98643.72;5075189;28;19924;-81
2022/08/23 04:01:20;;;;;;;;;;;;;;;18.61;100.00;98652.63;5058337;28;19925;-80
2022/08/23 04:03:48;;;;;;;;;;;;;;;18.80;100.00;98656.81;5074728;28;19925;-81
2022/08/23 04:06:17;;;;;;;;;;;;;;;18.68;100.00;98660.72;5074705;28;20260;-80
2022/08/23 04:08:45;;;;;;;;;;;;;;;18.87;100.00;98656.41;5058023;28;20023;-81
2022/08/23 04:11:13;;;;;;;;;;;;;;;18.86;100.00;98660.50;5108486;28;19928;-81
2022/08/23 04:13:50;;;;;;;;;;;;;;;18.88;100.00;98646.66;5057886;28;20011;-81
2022/08/23 04:16:18;;;;;;;;;;;;;;;18.83;100.00;98647.34;5074440;28;19924;-80
2022/08/23 04:18:45;;;;;;;;;;;;;;;18.88;100.00;98652.31;5058127;28;20350;-81
2022/08/23 04:21:18;;;;;;;;;;;;;;;18.62;100.00;98640.03;5057601;28;19974;-81
2022/08/23 04:23:46;;;;;;;;;;;;;;;18.31;100.00;98636.06;5057923;28;19925;-81
2022/08/23 04:26:13;;;;;;;;;;;;;;;18.64;100.00;98642.38;5074330;28;19990;-81
2022/08/23 04:28:41;;;;;;;;;;;;;;;18.58;100.00;98650.75;5057510;28;19928;-81
2022/08/23 04:31:09;;;;;;;;;;;;;;;18.45;100.00;98661.56;5074384;28;20019;-81
2022/08/23 04:33:41;;;;;;;;;;;;;;;18.61;100.00;98666.75;5074151;28;19924;-81
2022/08/23 04:36:11;;;;;;;;;;;;;;;18.49;100.00;98661.38;5074010;28;19924;-81
2022/08/23 04:38:43;;;;;;;;;;;;;;;18.38;100.00;98675.31;5091248;28;19932;-81
2022/08/23 04:44:47;;;;;;;;;;;;;;;18.50;100.00;98666.56;5058116;28;19930;-81
2022/08/23 04:47:19;;;;;;;;;;;;;;;18.39;100.00;98671.22;5057283;28;19948;-80
2022/08/23 04:49:50;;;;;;;;;;;;;;;18.01;100.00;98676.88;5057724;28;19974;-82
2022/08/23 04:52:22;;;;;;;;;;;;;;;18.06;100.00;98676.97;5057381;28;20380;-81
2022/08/23 04:54:49;;;;;;;;;;;;;;;18.35;100.00;98671.38;5056947;28;19924;-84
2022/08/23 04:58:04;;;;;;;;;;;;;;;18.52;100.00;98672.50;5075099;28;19979;-80
2022/08/23 05:00:38;;;;;;;;;;;;;;;18.57;100.00;98677.47;5073675;28;19925;-80
2022/08/23 05:03:05;;;;;;;;;;;;;;;18.64;100.00;98681.97;5056740;28;19934;-81
2022/08/23 05:05:32;;;;;;;;;;;;;;;18.40;100.00;98673.56;5073467;28;19978;-81
2022/08/23 05:08:00;;;;;;;;;;;;;;;18.28;100.00;98674.56;5073424;28;19924;-80
2022/08/23 05:10:28;;;;;;;;;;;;;;;18.38;100.00;98676.09;5073510;28;19924;-81
2022/08/23 05:12:55;;;;;;;;;;;;;;;18.53;100.00;98668.41;5073290;28;20345;-80
2022/08/23 05:15:23;;;;;;;;;;;;;;;18.66;100.00;98670.97;5055551;28;20019;-80
2022/08/23 05:17:57;;;;;;;;;;;;;;;18.51;100.00;98675.84;5091369;28;19925;-80
2022/08/23 05:20:25;;;;;;;;;;;;;;;18.61;100.00;98688.59;5073246;28;20355;-80
2022/08/23 05:22:53;;;;;;;;;;;;;;;18.58;100.00;98679.06;5073017;28;19924;-80
2022/08/23 05:25:48;;;;;;;;;;;;;;;18.34;100.00;98686.00;5056705;28;19929;-80
2022/08/23 05:28:16;;;;;;;;;;;;;;;18.32;100.00;98682.88;5056884;28;20496;-80
2022/08/23 05:30:44;;;;;;;;;;;;;;;18.20;100.00;98687.53;5073075;28;19960;-80
2022/08/23 05:33:11;;;;;;;;;;;;;;;18.27;100.00;98701.28;5073868;28;20387;-80
2022/08/23 05:35:39;;;;;;;;;;;;;;;18.30;100.00;98694.66;5056709;28;20249;-80
2022/08/23 05:38:06;;;;;;;;;;;;;;;18.51;100.00;98693.56;5073139;28;19924;-80
2022/08/23 05:40:33;;;;;;;;;;;;;;;18.68;100.00;98694.66;5056402;28;19932;-81
2022/08/23 05:43:08;;;;;;;;;;;;;;;18.79;100.00;98696.91;5056487;28;19931;-80
2022/08/23 05:45:35;;;;;;;;;;;;;;;18.59;100.00;98696.78;5073132;28;20023;-80
2022/08/23 05:48:03;;;;;;;;;;;;;;;18.61;100.00;98700.72;5072890;28;20014;-80
2022/08/23 05:50:38;;;;;;;;;;;;;;;18.78;100.00;98698.94;5056248;28;19924;-80
2022/08/23 05:53:08;;;;;;;;;;;;;;;18.52;100.00;98703.63;5056237;28;20014;-80
2022/08/23 05:55:37;;;;;;;;;;;;;;;18.48;100.00;98699.44;5072931;28;19928;-80
2022/08/23 05:58:14;;;;;;;;;;;;;;;18.71;100.00;98699.34;5072859;28;20287;-80
2022/08/23 06:00:42;;;;;;;;;;;;;;;18.92;100.00;98708.72;5056075;28;20348;-80
2022/08/23 06:03:09;;;;;;;;;;;;;;;19.05;100.00;98706.38;5072855;28;20364;-80
2022/08/23 06:05:40;;;;;;;;;;;;;;;19.03;100.00;98698.38;5073919;28;20297;-80
2022/08/23 06:08:08;;;;;;;;;;;;;;;19.12;100.00;98709.59;5077239;28;19924;-80
2022/08/23 06:10:36;;;;;;;;;;;;;;;18.99;100.00;98709.09;5077018;28;19928;-80
2022/08/23 06:13:17;;;;;;;;;;;;;;;18.69;100.00;98706.78;5076931;28;19924;-80
2022/08/23 06:15:44;;;;;;;;;;;;;;;18.82;100.00;98704.44;5110850;28;19925;-80
2022/08/23 06:18:13;;;;;;;;;;;;;;;18.96;100.00;98707.25;5093826;28;19925;-80
2022/08/23 06:20:41;;;;;;;;;;;;;;;19.25;100.00;98707.22;5060240;28;19924;-80
2022/08/23 06:23:12;;;;;;;;;;;;;;;19.44;100.00;98700.09;5076831;28;19970;-80
2022/08/23 06:25:41;;;;;;;;;;;;;;;19.58;100.00;98702.09;5060107;28;19931;-81
2022/08/23 06:28:13;;;;;;;;;;;;;;;19.63;100.00;98704.25;5060614;28;19930;-80
2022/08/23 06:30:41;;;;;;;;;;;;;;;19.49;100.00;98704.31;5059816;28;19924;-80
2022/08/23 06:33:26;;;;;;;;;;;;;;;19.42;100.00;98699.03;5095643;28;19928;-80
2022/08/23 06:36:17;;;;;;;;;;;;;;;19.68;100.00;98709.22;5077874;28;20250;-80
2022/08/23 06:39:07;;;;;;;;;;;;;;;19.65;100.00;98709.41;5077718;28;19967;-81
2022/08/23 06:41:59;;;;;;;;;;;;;;;19.36;100.00;98704.63;5059358;28;19925;-81
2022/08/23 06:44:29;;;;;;;;;;;;;;;19.06;100.00;98703.06;5076767;28;20077;-80
2022/08/23 06:47:03;;;;;;;;;;;;;;;19.40;100.00;98705.19;5075150;28;20451;-81
2022/08/23 06:49:30;;;;;;;;;;;;;;;19.68;100.00;98703.56;5058787;28;19925;-80
2022/08/23 06:51:59;;;;;;;;;;;;;;;19.86;100.00;98702.50;5058875;28;19924;-80
2022/08/23 06:54:56;;;;;;;;;;;;;;;19.89;100.00;98700.75;5048579;28;19928;-81
2022/08/23 06:57:40;;;;;;;;;;;;;;;20.06;100.00;98715.91;5075345;28;19940;-81
2022/08/23 07:00:26;;;;;;;;;;;;;;;20.09;100.00;98707.19;5075135;28;19951;-81
2022/08/23 07:03:16;;;;;;;;;;;;;;;19.87;100.00;98711.81;5074905;28;19928;-81
2022/08/23 07:06:06;;;;;;;;;;;;;;;19.86;100.00;98718.75;5015053;28;19933;-81
2022/08/23 07:08:36;;;;;;;;;;;;;;;19.98;100.00;98731.81;5015182;28;19965;-81
2022/08/23 07:11:03;;;;;;;;;;;;;;;20.07;100.00;98723.16;4998649;28;19926;-80
2022/08/23 07:13:30;;;;;;;;;;;;;;;20.07;100.00;98723.16;5031449;28;19957;-81
2022/08/23 07:15:58;;;;;;;;;;;;;;;20.15;100.00;98729.97;5031229;28;19925;-81
2022/08/23 07:18:25;;;;;;;;;;;;;;;20.22;100.00;98723.91;4998350;28;19930;-80
2022/08/23 07:20:57;;;;;;;;;;;;;;;20.18;100.00;98724.09;5031364;28;19926;-80
2022/08/23 07:23:25;;;;;;;;;;;;;;;20.35;100.00;98727.16;4998458;28;20290;-80
2022/08/23 07:25:54;;;;;;;;;;;;;;;20.32;100.00;98723.25;4998546;28;19925;-80
2022/08/23 07:28:24;;;;;;;;;;;;;;;20.33;100.00;98724.03;5014302;28;19940;-80
2022/08/23 07:30:51;;;;;;;;;;;;;;;20.36;100.00;98728.69;5014309;28;19926;-81
2022/08/23 07:33:18;;;;;;;;;;;;;;;20.36;100.00;98728.69;5014633;28;19926;-81
2022/08/23 07:36:04;;;;;;;;;;;;;;;20.46;100.00;98730.13;4998430;28;19925;-81
2022/08/23 07:38:31;;;;;;;;;;;;;;;20.54;100.00;98736.94;5015223;28;20401;-81
2022/08/23 07:40:58;;;;;;;;;;;;;;;20.46;100.00;98744.31;5014496;28;20292;-81
2022/08/23 07:43:28;;;;;;;;;;;;;;;20.45;100.00;98743.53;5067140;28;21315;-81
2022/08/23 07:45:55;;;;;;;;;;;;;;;20.61;100.00;98750.69;5058592;28;19924;-80
2022/08/23 07:48:22;;;;;;;;;;;;;;;20.63;100.00;98753.81;5075152;28;20356;-81
2022/08/23 07:51:13;;;;;;;;;;;;;;;20.51;100.00;98746.41;5075301;28;19986;-81
2022/08/23 07:53:40;;;;;;;;;;;;;;;20.59;100.00;98756.84;5057381;28;19924;-81
2022/08/23 07:56:12;;;;;;;;;;;;;;;20.53;100.00;98760.91;5059020;28;20371;-81
2022/08/23 07:58:55;;;;;;;;;;;;;;;20.23;100.00;98768.00;5074441;28;20027;-81
2022/08/23 08:01:34;;;;;;;;;;;;;;;19.72;100.00;98773.44;5058082;28;19932;-81
2022/08/23 08:04:02;;;;;;;;;;;;;;;19.86;100.00;98770.53;5074684;28;20376;-81
2022/08/23 08:06:39;;;;;;;;;;;;;;;20.28;100.00;98767.31;5074858;28;19924;-81
2022/08/23 08:09:07;;;;;;;;;;;;;;;20.23;100.00;98763.13;5074438;28;19924;-81
2022/08/23 08:11:34;;;;;;;;;;;;;;;20.59;100.00;98775.94;5074797;28;19931;-81
2022/08/23 08:14:04;;;;;;;;;;;;;;;20.88;100.00;98767.25;5074073;28;20019;-81
2022/08/23 08:16:36;;;;;;;;;;;;;;;20.90;100.00;98770.38;5074458;28;19924;-81
2022/08/23 08:19:05;;;;;;;;;;;;;;;20.90;100.00;98762.59;5074417;28;19931;-81
2022/08/23 08:22:11;;;;;;;;;;;;;;;20.76;100.00;98759.88;5012797;28;19929;-81
2022/08/23 08:25:02;;;;;;;;;;;;;;;20.80;100.00;98764.06;4993985;28;19976;-81
2022/08/23 08:27:31;;;;;;;;;;;;;;;20.86;100.00;98761.28;4993361;28;19930;-79
2022/08/23 08:29:58;;;;;;;;;;;;;;;20.93;100.00;98760.84;4976638;28;19961;-79
2022/08/23 08:32:25;;;;;;;;;;;;;;;20.45;100.00;98773.94;4977142;28;19926;-78
2022/08/23 08:34:52;;;;;;;;;;;;;;;20.97;100.00;98779.25;4977140;28;20020;-79
2022/08/23 08:37:20;;;;;;;;;;;;;;;21.21;100.00;98764.75;4993359;28;20001;-79
2022/08/23 08:39:48;;;;;;;;;;;;;;;21.26;100.00;98769.72;4960486;28;19925;-81
2022/08/23 08:42:28;;;;;;;;;;;;;;;21.38;100.00;98768.53;4993433;28;19926;-81
2022/08/23 08:45:03;;;;;;;;;;;;;;;21.38;100.00;98768.53;4961713;28;19938;-81
2022/08/23 08:47:35;;;;;;;;;;;;;;;21.62;100.00;98766.16;4993651;28;19926;-81
2022/08/23 08:50:05;;;;;;;;;;;;;;;21.68;100.00;98769.03;4993102;28;19925;-81
2022/08/23 08:52:37;;;;;;;;;;;;;;;21.58;100.00;98765.59;4992116;28;19925;-80
2022/08/23 08:55:13;;;;;;;;;;;;;;;21.47;100.00;98765.50;5035909;28;19983;-80
2022/08/23 08:57:45;;;;;;;;;;;;;;;21.39;100.00;98758.72;5036064;28;20327;-80
2022/08/23 09:00:18;;;;;;;;;;;;;;;21.51;100.00;98759.59;5052632;28;19925;-80
2022/08/23 09:02:46;;;;;;;;;;;;;;;21.69;100.00;98753.53;5047221;28;20274;-80
2022/08/23 09:05:16;;;;;;;;;;;;;;;21.82;100.00;98748.22;5073458;28;19979;-80
2022/08/23 09:08:03;;;;;;;;;;;;;;;22.03;100.00;98744.75;5073595;28;20012;-80
2022/08/23 09:10:50;;;;;;;;;;;;;;;21.27;100.00;98745.69;5106983;28;19952;-81
2022/08/23 09:13:23;;;;;;;;;;;;;;;20.85;100.00;98748.38;5073524;28;19932;-81
2022/08/23 09:15:50;;;;;;;;;;;;;;;21.12;100.00;98745.03;5073586;28;19924;-80
2022/08/23 09:18:18;;;;;;;;;;;;;;;20.74;100.00;98749.03;5072445;28;20017;-80
2022/08/23 09:20:47;;;;;;;;;;;;;;;20.83;100.00;98748.06;5073000;28;19928;-80
2022/08/23 09:23:16;;;;;;;;;;;;;;;21.54;100.00;98748.00;5073105;28;20284;-80
2022/08/23 09:25:55;;;;;;;;;;;;;;;22.13;100.00;98746.06;5073008;28;19932;-80
2022/08/23 09:28:32;;;;;;;;;;;;;;;22.34;100.00;98750.31;5056533;28;19931;-80
2022/08/23 09:31:00;;;;;;;;;;;;;;;22.35;100.00;98754.75;5072949;28;19925;-80
2022/08/23 09:33:40;;;;;;;;;;;;;;;22.42;100.00;98753.44;5056372;28;19925;-80
2022/08/23 09:36:16;;;;;;;;;;;;;;;22.12;100.00;98747.38;5073316;28;19925;-80
2022/08/23 09:38:55;;;;;;;;;;;;;;;22.41;100.00;98747.00;5055971;28;19974;-80
2022/08/23 09:41:35;;;;;;;;;;;;;;;22.76;100.00;98744.56;5072164;28;20007;-80
2022/08/23 09:44:05;;;;;;;;;;;;;;;22.97;100.00;98745.91;5072844;28;19930;-80
2022/08/23 09:46:37;;;;;;;;;;;;;;;23.03;100.00;98737.38;5106351;28;20375;-80
2022/08/23 09:49:25;;;;;;;;;;;;;;;22.85;100.00;98744.34;5088997;28;19967;-80
2022/08/23 09:51:59;;;;;;;;;;;;;;;23.17;100.00;98736.34;5072129;28;20356;-79
2022/08/23 09:54:32;;;;;;;;;;;;;;;22.90;100.00;98742.78;5071383;28;19974;-79
2022/08/23 09:57:01;;;;;;;;;;;;;;;22.27;100.00;98744.34;5072414;28;20359;-79
2022/08/23 09:59:43;;;;;;;;;;;;;;;22.90;100.00;98743.53;5055729;28;20387;-79
2022/08/23 10:02:25;;;;;;;;;;;;;;;23.26;100.00;98743.91;5072538;28;19928;-79
2022/08/23 10:05:15;;;;;;;;;;;;;;;23.12;100.00;98739.97;5055449;28;20038;-79
2022/08/23 10:07:50;;;;;;;;;;;;;;;23.27;100.00;98736.88;5070727;28;20023;-79
2022/08/23 10:10:30;;;;;;;;;;;;;;;23.43;100.00;98733.28;5072408;28;20026;-79
2022/08/23 10:13:01;;;;;;;;;;;;;;;23.30;100.00;98741.56;5072387;28;19931;-79
2022/08/23 10:15:43;;;;;;;;;;;;;;;23.63;100.00;98735.88;5105602;28;19928;-77
2022/08/23 10:18:17;;;;;;;;;;;;;;;23.45;100.00;98734.31;5072125;28;19924;-77
2022/08/23 10:20:57;;;;;;;;;;;;;;;23.52;100.00;98735.88;5105645;28;19924;-77
2022/08/23 10:23:47;;;;;;;;;;;;;;;23.77;100.00;98723.38;5072006;28;19924;-78
2022/08/23 10:26:20;;;;;;;;;;;;;;;23.79;100.00;98721.59;5073352;28;19924;-78
2022/08/23 10:31:39;;;;;;;;;;;;;;;23.43;100.00;98716.19;5072142;28;20338;-78
2022/08/23 10:34:22;;;;;;;;;;;;;;;23.96;100.00;98719.47;5088911;28;20433;-79
2022/08/23 10:37:03;;;;;;;;;;;;;;;24.21;100.00;98720.44;5071979;28;19931;-78
2022/08/23 10:39:31;;;;;;;;;;;;;;;23.87;100.00;98722.59;5071875;28;19928;-78
2022/08/23 10:42:12;;;;;;;;;;;;;;;24.40;100.00;98724.28;5055397;28;20402;-79
2022/08/23 10:44:49;;;;;;;;;;;;;;;24.56;100.00;98720.56;5055270;28;19963;-78
2022/08/23 10:47:26;;;;;;;;;;;;;;;24.69;100.00;98717.91;5072106;28;20364;-79
2022/08/23 10:49:55;;;;;;;;;;;;;;;24.88;100.00;98713.16;5088824;28;20027;-79
2022/08/23 10:52:31;;;;;;;;;;;;;;;24.56;100.00;98721.34;5073626;28;19924;-79
2022/08/23 10:55:15;;;;;;;;;;;;;;;24.38;100.00;98715.47;5075580;28;19932;-79
2022/08/23 10:57:45;;;;;;;;;;;;;;;24.14;100.00;98724.63;5075334;28;19938;-78
2022/08/23 11:00:21;;;;;;;;;;;;;;;24.37;100.00;98713.91;5058778;28;19924;-78
2022/08/23 11:02:56;;;;;;;;;;;;;;;24.17;100.00;98712.16;5075537;28;19998;-79
2022/08/23 11:05:29;;;;;;;;;;;;;;;23.66;100.00;98723.41;5092229;28;19964;-79
2022/08/23 11:08:02;;;;;;;;;;;;;;;23.16;100.00;98731.16;5075150;28;20268;-78
2022/08/23 11:10:36;;;;;;;;;;;;;;;23.59;100.00;98730.41;5075135;28;20368;-78
2022/08/23 11:13:17;;;;;;;;;;;;;;;22.85;100.00;98727.25;5075387;28;20041;-78
2022/08/23 11:15:45;;;;;;;;;;;;;;;23.75;100.00;98726.75;5092131;28;19986;-79
2022/08/23 11:18:32;;;;;;;;;;;;;;;23.70;100.00;98726.78;5075184;28;19931;-78
2022/08/23 11:21:08;;;;;;;;;;;;;;;23.13;100.00;98730.91;5074761;28;19931;-79
2022/08/23 11:23:49;;;;;;;;;;;;;;;23.65;100.00;98744.66;5075483;28;19930;-80
2022/08/23 11:26:25;;;;;;;;;;;;;;;23.90;100.00;98738.66;5075632;28;19924;-80
2022/08/23 11:28:54;;;;;;;;;;;;;;;24.56;100.00;98744.22;5059066;28;19924;-80
2022/08/23 11:31:28;;;;;;;;;;;;;;;24.40;100.00;98732.84;5075034;28;19924;-80
2022/08/23 11:34:10;;;;;;;;;;;;;;;24.27;100.00;98744.03;5058381;28;19924;-80
2022/08/23 11:36:38;;;;;;;;;;;;;;;24.98;100.00;98728.66;5092069;28;19932;-80
2022/08/23 11:39:07;;;;;;;;;;;;;;;25.07;100.00;98728.34;5058721;28;20126;-81
2022/08/23 11:41:54;;;;;;;;;;;;;;;25.09;100.00;98734.31;5075266;28;20411;-80
2022/08/23 11:44:27;;;;;;;;;;;;;;;24.90;100.00;98732.63;5058560;28;20260;-80
2022/08/23 11:47:02;;;;;;;;;;;;;;;24.88;100.00;98730.28;5075183;28;19932;-81
2022/08/23 11:49:38;;;;;;;;;;;;;;;24.50;100.00;98739.81;5074883;28;19924;-80
2022/08/23 11:52:17;;;;;;;;;;;;;;;24.64;100.00;98730.16;5058021;28;19929;-80
2022/08/23 11:55:03;;;;;;;;;;;;;;;24.55;100.00;98736.16;5041369;28;19931;-81
2022/08/23 11:57:46;;;;;;;;;;;;;;;24.12;100.00;98740.72;5075946;28;20022;-80
2022/08/23 12:00:16;;;;;;;;;;;;;;;23.89;100.00;98736.31;5042451;28;19925;-81
2022/08/23 12:03:00;;;;;;;;;;;;;;;24.02;100.00;98740.22;5041003;28;19925;-81
2022/08/23 12:05:33;;;;;;;;;;;;;;;24.33;100.00;98737.03;5091061;28;19925;-81
2022/08/23 12:08:04;;;;;;;;;;;;;;;24.46;100.00;98745.78;5057941;28;19924;-81
2022/08/23 12:10:40;;;;;;;;;;;;;;;23.69;100.00;98739.50;5058002;28;19924;-81
2022/08/23 12:13:17;;;;;;;;;;;;;;;23.69;100.00;98739.50;5075583;28;20295;-81
2022/08/23 12:16:03;;;;;;;;;;;;;;;24.08;100.00;98745.94;5057975;28;19931;-80
2022/08/23 12:18:32;;;;;;;;;;;;;;;24.34;100.00;98740.66;5075593;28;19929;-80
2022/08/23 12:21:04;;;;;;;;;;;;;;;24.42;100.00;98733.88;5041390;28;20372;-80
2022/08/23 12:23:41;;;;;;;;;;;;;;;24.81;100.00;98735.81;5074156;28;19984;-81
2022/08/23 12:26:11;;;;;;;;;;;;;;;24.96;100.00;98727.66;5075831;28;19924;-81
2022/08/23 12:28:44;;;;;;;;;;;;;;;24.41;100.00;98734.41;5075773;28;19974;-81
2022/08/23 12:31:18;;;;;;;;;;;;;;;24.63;100.00;98729.34;5074276;28;19940;-81
2022/08/23 12:33:49;;;;;;;;;;;;;;;24.89;100.00;98728.97;5090790;28;19928;-80
2022/08/23 12:36:31;;;;;;;;;;;;;;;23.97;100.00;98731.69;5074073;28;19925;-80
2022/08/23 12:39:06;;;;;;;;;;;;;;;23.77;100.00;98743.34;5074756;28;19932;-80
2022/08/23 12:41:51;;;;;;;;;;;;;;;24.15;100.00;98743.31;5040395;28;19948;-78
2022/08/23 12:44:31;;;;;;;;;;;;;;;23.83;100.00;98738.41;5074459;28;19954;-78
2022/08/23 12:47:16;;;;;;;;;;;;;;;24.36;100.00;98747.41;5074525;28;19931;-78
2022/08/23 12:50:11;;;;;;;;;;;;;;;24.38;100.00;98741.16;5040420;28;19925;-78
2022/08/23 12:52:38;;;;;;;;;;;;;;;24.26;100.00;98739.66;5037936;28;20014;-77
2022/08/23 12:55:15;;;;;;;;;;;;;;;24.27;100.00;98732.63;5056231;28;20383;-76
2022/08/23 12:57:48;;;;;;;;;;;;;;;24.53;100.00;98733.03;5039953;28;19925;-76
2022/08/23 13:00:21;;;;;;;;;;;;;;;24.51;100.00;98733.56;5072720;28;20276;-76
2022/08/23 13:02:52;;;;;;;;;;;;;;;24.48;100.00;98728.91;5022938;28;19928;-76
2022/08/23 13:05:25;;;;;;;;;;;;;;;24.59;100.00;98731.72;5039356;28;19932;-76
2022/08/23 13:07:53;;;;;;;;;;;;;;;23.87;100.00;98734.00;5055736;28;19931;-76
2022/08/23 13:10:20;;;;;;;;;;;;;;;23.85;100.00;98744.38;5039589;28;20018;-76
2022/08/23 13:12:48;;;;;;;;;;;;;;;23.92;100.00;98741.78;5056435;28;19925;-76
2022/08/23 13:15:33;;;;;;;;;;;;;;;23.83;100.00;98738.41;5073709;28;20038;-76